Tiempo atmosférico en la estación meteorológica de Antequera, Málaga (400 m.)



Fecha
DESCASC
Temp. máxima en grados centígrados (hora)
DESCASC
Temp. mínima en grados centígrados (hora)
DESCASC
Temp. media en grados centígrados
DESCASC
Racha de viento máxima en m/sg (hora)
DESCASC
Velocidad máxima media en intervalos de 10 minutos(hora)
DESCASC
Precipitaciones diarias en mm
DESCASC
Precipitaciones de 00:00 a 06:00 en mm
DESCASC
Precipitaciones de 06:00 a 12:00 en mm
DESCASC
Precipitaciones de 12:00 a 18:00 en mm
DESCASC
Precipitaciones de 18:00 a 24:00 en mm
DESCASC
02-07-2020 34.7 (18:10) 17.1 (06:20) 25.9 9.17 (19:00) 3.89 (17:50) 0 0 0 0 0
01-07-2020 36.2 (18:40) 18 (07:10) 27.1 7.5 (18:30) 2.78 (18:50) 0 0 0 0 0
30-06-2020 34.7 (16:10) 20.5 (00:00) 27.6 10.56 (00:20) 5.28 (00:30) 0 0 0 0 0
29-06-2020 34.3 (17:20) 19.2 (00:00) 26.8 11.39 (18:10) 6.11 (18:10) 0 0 0 0 0
28-06-2020 35.3 (15:40) 17.6 (00:00) 26.4 8.06 (18:40) 4.72 (19:50) 0 0 0 0 0
27-06-2020 32.6 (19:10) 14.9 (00:00) 23.7 6.67 (16:40) 2.78 (20:20) 0 0 0 0 0
26-06-2020 30.8 (18:10) 16.5 (00:00) 23.6 8.33 (16:00) 3.61 (19:20) 0 0 0 0 0
25-06-2020 33 (17:40) 17.4 (00:00) 25.2 8.61 (02:00) 4.72 (01:50) 0 0 0 0 0
24-06-2020 31.8 (17:40) 17.9 (00:00) 24.8 9.17 (15:40) 4.72 (21:40) 0 0 0 0 0
23-06-2020 33.4 (15:40) 22.1 (00:00) 27.8 11.67 (15:50) 6.11 (12:20) 0 0 0 0 0
22-06-2020 33.3 (16:30) 17.1 (00:00) 25.2 13.89 (17:50) 6.67 (16:20) 0 0 0 0 0
21-06-2020 35.9 (18:40) 15.6 (00:00) 25.8 6.39 (20:10) 3.61 (19:30) 0 0 0 0 0
20-06-2020 32.3 (16:20) 15.3 (00:00) 23.8 9.44 (16:00) 3.33 (20:20) 0 0 0 0 0
19-06-2020 30.1 (19:20) 13 (00:00) 21.6 6.39 (18:30) 3.06 (21:00) 0 0 0 0 0
18-06-2020 29.5 (16:00) 14.4 (00:00) 21.9 8.33 (20:40) 3.89 (20:00) 0 0 0 0 0
17-06-2020 28.7 (16:10) 15.6 (00:00) 22.2 9.17 (16:00) 3.61 (17:20) 0 0 0 0 0
16-06-2020 27.6 (16:50) 15.5 (00:00) 21.6 10.28 (15:00) 4.72 (15:00) 0 0 0 0 0
15-06-2020 28.9 (18:00) 11.7 (00:00) 20.3 8.61 (16:30) 3.89 (21:00) 0 0 0 0 0
14-06-2020 27 (17:40) 13.5 (00:00) 20.3 8.33 (18:10) 4.17 (19:30) 0 0 0 0 0
13-06-2020 25.4 (18:20) 11.4 (00:00) 18.4 8.89 (00:20) 3.61 (18:50) 0 0 0 0 0
12-06-2020 21.5 (17:40) 13.9 (00:00) 17.7 10.28 (18:30) 4.44 (19:50) 0.6 0.6 0 0 0
11-06-2020 25.1 (16:00) 12.2 (00:00) 18.7 11.67 (18:20) 4.72 (20:00) 0 0 0 0 0
10-06-2020 29.6 (17:40) 12.4 (00:00) 21 8.06 (20:20) 3.89 (20:20) 0 0 0 0 0
09-06-2020 26.8 (17:40) 11.5 (00:00) 19.1 8.61 (18:30) 3.61 (18:20) 0 0 0 0 0
08-06-2020 24 (18:10) 15.8 (03:10) 19.9 9.44 (15:00) 4.17 (14:30) 0 0 0 0 0
07-06-2020 25.5 (15:40) 17.3 (00:00) 21.4 11.39 (17:30) 4.44 (19:30) 0 0 0 0 0
06-06-2020 29.9 (17:30) 13.4 (00:00) 21.6 10.83 (19:10) 4.44 (18:10) 0 0 0 0 0

Gráficas

Temp. máximas Temp. mínimas Temp. medias Precipitaciones Rachas de viento máximas Velocidades máximas media en intervalos de 10 minutos

Datos horarios

Fecha y hora oficial Temperatura (ºC) Velocidad del viento (km/h) Dirección del viento Racha (km/h) Dirección de racha Precipitación (mm) Presión (hPa) Tendencia (hPa) Humedad (%)
2020-07-05 23:00:00 26.5 3 Sur 26 Sur 0 970 0.7 34
2020-07-05 22:00:00 27.6 8 Sur 27 Sur 0 969.6 0.4 33
2020-07-05 21:00:00 29.1 9 Sur 23 Sudoeste 0 969.4 0.3 31
2020-07-05 20:00:00 30.9 7 Sur 33 Sudeste 0 969.3 -- 28
2020-07-05 19:00:00 31.5 12 Sur 36 Sudeste 0 969.2 -- 31
2020-07-05 18:00:00 32.1 14 Sur 37 Sur 0 969.1 -- 32
2020-07-05 17:00:00 31.4 20 Sur 44 Sudeste 0 969.4 -- 34
2020-07-05 16:00:00 31.3 15 Sur 37 Sudeste 0 970 -- 35
2020-07-05 15:00:00 30.7 10 Sur 30 Sur 0 970.8 -- 38
2020-07-05 14:00:00 31 12 Sur 33 Sudeste 0 971.2 -- 38
2020-07-05 13:00:00 30.4 15 Sudeste 36 Sudeste 0 971.4 -- 41
2020-07-05 12:00:00 29 13 Sudeste 31 Sur 0 971.8 -- 44
2020-07-05 11:00:00 27.5 11 Sudeste 28 Sudeste 0 971.8 -- 49
2020-07-05 10:00:00 25.6 9 Sudeste 28 Sudeste 0 971.7 -- 51
2020-07-05 09:00:00 24.3 14 Este 30 Sudeste 0 971.4 -- 57
2020-07-05 08:00:00 23 6 Sudeste 25 Este 0 971 -- 60
2020-07-05 07:00:00 22.2 10 Sudeste 27 Sur 0 970.7 -- 69
2020-07-05 06:00:00 22.1 14 Sur 31 Sur 0 970.6 -- 72
2020-07-05 05:00:00 21.7 5 Sur 18 Sur 0 970.5 -- 72
2020-07-05 04:00:00 22.8 7 Sur 21 Este 0 970.8 -- 64
2020-07-05 03:00:00 22.2 0 Calma 14 Este 0 971.4 -- 67
2020-07-05 02:00:00 22.8 2 Este 9 Sudeste 0 971.8 -- 63
2020-07-05 01:00:00 23.2 2 Sur 12 Sur 0 971.9 -- 64
2020-07-05 00:00:00 23.8 0 Calma 11 Sudoeste 0 971.9 -- 60
2020-07-04 23:00:00 24.7 0 Calma 13 Sur 0 971.3 -- 56
2020-07-04 22:00:00 25.8 4 Sur 16 Sudeste 0 970.6 -- 47
2020-07-04 21:00:00 28 4 Sur 27 Sur 0 970.4 -- 38
2020-07-04 20:00:00 29.2 11 Sur 32 Sur 0 970.3 -- 35
2020-07-04 19:00:00 30.1 13 Sur 33 Sudeste 0 970.1 -- 37
2020-07-04 18:00:00 30.6 16 Sur 36 Sur 0 970.4 -- 37
2020-07-04 17:00:00 30.4 14 Sur 32 Sudeste 0 970.8 -- 44
2020-07-04 16:00:00 30.6 6 Sur 25 Sudeste 0 971.5 -- 44
2020-07-04 15:00:00 29.5 13 Sudeste 32 Sudeste 0 972.1 -- 47
2020-07-04 14:00:00 28.9 13 Sudeste 30 Sudeste 0 972.6 -- 51
2020-07-04 13:00:00 27.7 15 Sudeste 34 Sur 0 972.9 -- 55
2020-07-04 12:00:00 25.6 19 Sudeste 38 Sudeste 0 973.1 -- 62
2020-07-04 11:00:00 23.9 16 Sur 33 Sur 0 972.8 -- 69
2020-07-04 10:00:00 23.2 13 Sudeste 27 Sur 0 972.4 -- 73
2020-07-04 09:00:00 22.2 8 Sur 15 Sur 0 972.2 -- 80
2020-07-04 08:00:00 20.4 0 Calma 7 Nordeste 0 971.7 -- 84
2020-07-04 07:00:00 19.7 0 Calma 4 Nordeste 0 971.7 -- 90
2020-07-04 06:00:00 20.6 0 Calma 6 Sur 0 971.3 -- 86
2020-07-04 05:00:00 21.5 0 Calma 10 Sudeste 0 971.5 -- 82
2020-07-04 04:00:00 22.1 0 Calma 12 Sur 0 971.6 -- 80
2020-07-04 03:00:00 22.3 2 Sudoeste 19 Sur 0 971.9 -- 76
2020-07-04 02:00:00 23 6 Sur 26 Sur 0 971.8 -- 73
2020-07-04 01:00:00 23.5 6 Sur 18 Sur 0 971.6 -- 70
2020-07-04 00:00:00 24.1 5 Sur 16 Sur 0 971.5 -- 67
2020-07-03 23:00:00 25.4 0 Calma 9 Sur 0 970.8 -- 63
2020-07-03 22:00:00 27 0 Calma 11 Sudeste 0 969.9 -- 56
2020-07-03 21:00:00 28.9 4 Sur 18 Sur 0 969.3 -- 50
2020-07-03 20:00:00 30.8 8 Sudeste 24 Sudeste 0 969 -- 45
2020-07-03 19:00:00 31.1 12 Sudeste 27 Sudeste 0 968.9 -- 44
2020-07-03 18:00:00 31.8 13 Sudeste 29 Sudeste 0 968.9 -- 41
2020-07-03 17:00:00 32.6 11 Sudeste 26 Sudeste 0 969 -- 39
2020-07-03 16:00:00 32.5 8 Sudeste 29 Sudeste 0 969.4 -- 38
2020-07-03 15:00:00 33.2 5 Este 21 Este 0 969.5 -- 30
2020-07-03 14:00:00 31.6 2 Noroeste 19 Noroeste 0 970 -- 31
2020-07-03 13:00:00 30 5 Oeste 15 Oeste 0 970.3 -- 33
2020-07-03 12:00:00 28.4 2 Noroeste 12 Oeste 0 970.6 -- 40
2020-07-03 11:00:00 27.1 3 Este 9 Este 0 970.4 -- 46
2020-07-03 10:00:00 24.4 3 Nordeste 8 Este 0 970.6 -- 52
2020-07-03 09:00:00 21.8 0 Calma 3 Sudeste 0 970.1 -- 57
2020-07-03 08:00:00 18.5 0 Calma 4 Este 0 970 -- 63
2020-07-03 07:00:00 18.1 0 Calma 3 Este 0 969.6 -- 63
2020-07-03 06:00:00 19.2 0 Calma 6 Nordeste 0 969.6 -- 60
2020-07-03 05:00:00 19.6 2 Nordeste 6 Nordeste 0 969.7 -- 57
2020-07-03 04:00:00 21.5 0 Calma 10 Nordeste 0 969.7 -- 53
2020-07-03 03:00:00 21.6 0 Calma 9 Nordeste 0 969.9 -- 50
2020-07-03 02:00:00 23.1 0 Calma 8 Oeste 0 969.7 -- 48
2020-07-03 01:00:00 24.4 2 Oeste 10 Sudoeste 0 969.4 -- 44
2020-07-03 00:00:00 25.4 0 Calma 10 Oeste 0 968.9 -- 40
2020-07-02 23:00:00 26.7 4 Oeste 17 Oeste 0 968.4 -- 38
2020-07-02 22:00:00 28.9 9 Oeste 22 Oeste 0 967.8 -- 34
2020-07-02 21:00:00 31.3 9 Oeste 24 Oeste 0 967.4 -- 31
2020-07-02 20:00:00 33 12 Oeste 27 Oeste 0 967.3 -- 27
2020-07-02 19:00:00 33.6 11 Oeste 33 Oeste 0 967.2 -- 27
2020-07-02 18:00:00 34.3 13 Oeste 31 Oeste 0 967.5 -- 29
2020-07-02 17:00:00 33.9 10 Noroeste 28 Noroeste 0 967.7 -- 31
2020-07-02 16:00:00 33.4 6 Oeste 26 Noroeste 0 968 -- 32
2020-07-02 15:00:00 32.3 9 Noroeste 29 Noroeste 0 968.4 -- 34
2020-07-02 14:00:00 31.9 6 Norte 30 Noroeste 0 968.9 -- 35
2020-07-02 13:00:00 30.6 3 Norte 22 Nordeste 0 969.2 -- 40
2020-07-02 12:00:00 30.6 5 Nordeste 14 Este 0 969 -- 42
2020-07-02 11:00:00 27.6 2 Norte 15 Sur 0 969 -- 47
2020-07-02 10:00:00 25.4 0 Calma 8 Este 0 968.9 -- 50
2020-07-02 09:00:00 21.9 0 Calma 8 Norte 0 968.9 -- 57
2020-07-02 08:00:00 18.4 0 Calma 10 Nordeste 0 968.5 -- 63
2020-07-02 07:00:00 19.3 5 Nordeste 12 Nordeste 0 968.3 -- 62
2020-07-02 06:00:00 19.1 2 Nordeste 6 Nordeste 0 967.9 -- 61
2020-07-02 05:00:00 19.5 2 Oeste 6 Oeste 0 967.6 -- 53
2020-07-02 04:00:00 20 0 Calma 4 Oeste 0 967.4 -- 55
2020-07-02 03:00:00 21.3 0 Calma 0 Calma 0 967.5 -- 50
2020-07-02 02:00:00 22.7 0 Calma 3 Este 0 967.3 -- 46
2020-07-02 01:00:00 24.2 2 Noroeste 5 Noroeste 0 967.4 -- 44
2020-07-02 00:00:00 26.9 0 Calma 6 Nordeste 0 967.4 -- 40
2020-07-01 23:00:00 28.4 0 Calma 12 Noroeste 0 967 -- 37
2020-07-01 22:00:00 29.5 0 Calma 18 Oeste 0 966.4 -- 33
2020-07-01 21:00:00 32.5 10 Noroeste 21 Noroeste 0 966.2 -- 28
2020-07-01 20:00:00 34.8 10 Oeste 21 Oeste 0 965.8 -- 26
2020-07-01 19:00:00 35.9 6 Noroeste 27 Noroeste 0 965.7 -- 25
2020-07-01 18:00:00 35.7 5 Noroeste 25 Noroeste 0 966 -- 26
2020-07-01 17:00:00 34.6 4 Noroeste 22 Oeste 0 966.2 -- 27
2020-07-01 16:00:00 34.5 8 Oeste 20 Oeste 0 966.3 -- 28
2020-07-01 15:00:00 33.4 4 Noroeste 22 Noroeste 0 966.6 -- 29
2020-07-01 14:00:00 33 0 Calma 18 Noroeste 0 967.1 -- 31
2020-07-01 13:00:00 31.5 3 Noroeste 17 Noroeste 0 967.4 -- 37
2020-07-01 12:00:00 29.9 4 Noroeste 15 Oeste 0 967.5 -- 40
2020-07-01 11:00:00 28.3 5 Nordeste 13 Este 0 967.4 -- 46
2020-07-01 10:00:00 25.2 3 Nordeste 9 Este 0 967.7 -- 58
2020-07-01 09:00:00 21.5 0 Calma 4 Este 0 967.6 -- 68
2020-07-01 08:00:00 18.8 0 Calma 3 Este 0 967.3 -- 76
2020-07-01 07:00:00 18.1 0 Calma 4 Oeste 0 967 -- 79
2020-07-01 06:00:00 19.6 0 Calma 6 Nordeste 0 966.6 -- 75
2020-07-01 05:00:00 19.9 0 Calma 5 Oeste 0 966.4 -- 77
2020-07-01 04:00:00 20.2 0 Calma 7 Oeste 0 966.4 -- 75
2020-07-01 03:00:00 21.5 6 Noroeste 13 Oeste 0 966.3 -- 71
2020-07-01 02:00:00 22.8 0 Calma 7 Noroeste 0 966.4 -- 67
2020-07-01 01:00:00 23.4 4 Oeste 8 Oeste 0 966.6 -- 62
2020-07-01 00:00:00 24.7 0 Calma 8 Sur 0 965.9 -- 56
2020-06-30 23:00:00 26.9 0 Calma 3 Sur 0 965.7 -- 46
2020-06-30 22:00:00 29.2 2 Oeste 8 Sur 0 964.7 -- 42
2020-06-30 21:00:00 30.4 3 Sur 18 Sudeste 0 964.1 -- 40
2020-06-30 20:00:00 32.4 8 Sudeste 24 Sudeste 0 963.7 -- 37
2020-06-30 19:00:00 33.8 10 Sudeste 27 Sur 0 963.5 -- 34
2020-06-30 18:00:00 34.3 10 Sudeste 28 Sur 0 963.9 -- 32
2020-06-30 17:00:00 34 13 Sudeste 30 Sudeste 0 964.5 -- 31
2020-06-30 16:00:00 33.9 14 Sudeste 36 Sudeste 0 964.7 -- 31
2020-06-30 15:00:00 33.8 17 Sudeste 34 Sudeste 0 965.2 -- 32
2020-06-30 14:00:00 32.5 13 Sur 27 Sur 0 965.5 -- 33
2020-06-30 13:00:00 31.1 13 Sur 25 Sudeste 0 965.8 -- 34
2020-06-30 12:00:00 30.9 8 Sudeste 25 Sudeste 0 965.6 -- 35
2020-06-30 11:00:00 29.3 11 Sur 29 Este 0 965.4 -- 36
2020-06-30 10:00:00 28.4 3 Sudeste 18 Sudeste 0 965.6 -- 38
2020-06-30 09:00:00 25 0 Calma 10 Este 0 965.5 -- 41
2020-06-30 08:00:00 22 2 Nordeste 11 Nordeste 0 965.3 -- 44
2020-06-30 07:00:00 22 8 Nordeste 14 Nordeste 0 965 -- 43
2020-06-30 06:00:00 22.9 5 Nordeste 22 Sur 0 964.6 -- 40
2020-06-30 05:00:00 26.2 9 Sur 27 Sudeste 0 964.5 -- 37
2020-06-30 04:00:00 24.7 3 Este 13 Este 0 965.1 -- 39
2020-06-30 03:00:00 25.1 0 Calma 16 Este 0 965.7 -- 40
2020-06-30 02:00:00 24.3 0 Calma 25 Sudeste 0 966.1 -- 43
2020-06-30 01:00:00 25.4 10 Sur 38 Sudeste 0 966.5 -- 40
2020-06-30 00:00:00 26.2 15 Sur 34 Sur 0 966.4 -- 37
2020-06-29 23:00:00 26.7 18 Sur 36 Sur 0 966.1 -- 33
2020-06-29 22:00:00 28.5 14 Sur 33 Sudeste 0 965.6 -- 29
2020-06-29 21:00:00 30.8 14 Sudeste 33 Sur 0 965.4 -- 26
2020-06-29 20:00:00 32.1 20 Sur 36 Sudeste 0 965.3 -- 25
2020-06-29 19:00:00 33.3 17 Sudeste 41 Sur 0 965.4 -- 22
2020-06-29 18:00:00 33.6 20 Sudeste 39 Sur 0 965.8 -- 23
2020-06-29 17:00:00 33.5 21 Sudeste 36 Sudeste 0 966.2 -- 27
2020-06-29 16:00:00 33.8 17 Sudeste 34 Sur 0 966.7 -- 26
2020-06-29 15:00:00 33 17 Sur 35 Sudeste 0 967.3 -- 27
2020-06-29 14:00:00 32.4 12 Sur 32 Sudeste 0 967.9 -- 28
2020-06-29 13:00:00 32.5 12 Sudeste 31 Sur 0 968.3 -- 29
2020-06-29 12:00:00 31.9 5 Sudeste 19 Sudeste 0 968.5 -- 31
2020-06-29 11:00:00 30 3 Sur 12 Sudeste 0 968.3 -- 33
2020-06-29 10:00:00 26.4 0 Calma 5 Noroeste 0 968.6 -- 43
2020-06-29 09:00:00 22.9 0 Calma 4 Sudoeste 0 968.6 -- 51
2020-06-29 08:00:00 21 0 Calma 4 Nordeste 0 968.2 -- 53
2020-06-29 07:00:00 19.7 0 Calma 0 Calma 0 968.1 -- 51
2020-06-29 06:00:00 20.6 0 Calma 5 Oeste 0 967.9 -- 49
2020-06-29 05:00:00 21.8 0 Calma 4 Oeste 0 968.1 -- 46
2020-06-29 04:00:00 22.6 3 Oeste 11 Noroeste 0 968.5 -- 44
2020-06-29 03:00:00 23.4 6 Noroeste 15 Sudeste 0 968.8 -- 43
2020-06-29 02:00:00 24.7 4 Sur 23 Sur 0 969.3 -- 39
2020-06-29 01:00:00 25 4 Sur 19 Sur 0 969 -- 40
2020-06-29 00:00:00 25.9 0 Calma 9 Sur 0 968.8 -- 39
2020-06-28 23:00:00 26.7 4 Sur 14 Sur 0 968.4 -- 38
2020-06-28 22:00:00 28.3 5 Sur 19 Sur 0 967.8 -- 36
2020-06-28 21:00:00 29.8 9 Sur 29 Sudeste 0 967.2 -- 34
2020-06-28 20:00:00 31.6 12 Sudeste 29 Sur 0 967 -- 32
2020-06-28 19:00:00 33.1 14 Sudeste 29 Sudeste 0 967.2 -- 31
2020-06-28 18:00:00 34.2 11 Sur 25 Sur 0 967.5 -- 28
2020-06-28 17:00:00 34.3 11 Sur 28 Sur 0 967.7 -- 28
2020-06-28 16:00:00 34.7 9 Sudeste 28 Sudeste 0 967.9 -1.3 28
2020-06-28 15:00:00 34.1 12 Este 28 Sudeste 0 968.2 -- 31
2020-06-28 14:00:00 33.7 0 Calma 18 Este 0 968.8 -- 31
2020-06-28 13:00:00 32 4 Noroeste 11 Oeste 0 969.2 -- 33
2020-06-28 12:00:00 29.8 3 Sudoeste 15 Sudeste 0 969.4 -- 39
2020-06-28 11:00:00 28.2 2 Este 11 Este 0 969.4 -- 44
2020-06-28 10:00:00 25.3 0 Calma 6 Este 0 969.6 -- 50
2020-06-28 09:00:00 21.7 0 Calma 4 Este 0 969.5 -- 56
2020-06-28 08:00:00 18.4 0 Calma 4 Noroeste 0 969.3 -- 62
2020-06-28 07:00:00 17.8 0 Calma -- -- 0 969 -- 63
2020-06-28 06:00:00 18.7 0 Calma 7 Oeste 0 968.8 -- 61
2020-06-28 05:00:00 19.3 0 Calma 4 Nordeste 0 968.9 -- 58
2020-06-28 04:00:00 20.6 0 Calma 4 Noroeste 0 969 -- 56
2020-06-28 03:00:00 21.9 0 Calma 7 Nordeste 0 969 -- 55
2020-06-28 02:00:00 22.8 0 Calma 8 Nordeste 0 969 -- 51
2020-06-28 01:00:00 23.9 0 Calma 3 Sur 0 969.1 -- 45
2020-06-28 00:00:00 25.1 0 Calma 9 Noroeste 0 969.1 -- 42
2020-06-27 23:00:00 26.2 4 Noroeste 13 Noroeste 0 968.5 -- 38
2020-06-27 22:00:00 28 5 Noroeste 14 Oeste 0 967.7 -- 34
2020-06-27 21:00:00 30.5 7 Noroeste 22 Noroeste 0 967.4 -- 31
2020-06-27 20:00:00 31.9 6 Noroeste 16 Noroeste 0 967.1 -- 29
2020-06-27 19:00:00 32.3 5 Noroeste 21 Noroeste 0 967.6 -- 29
2020-06-27 18:00:00 31.6 8 Oeste 21 Nordeste 0 968 -- 29
2020-06-27 17:00:00 31.2 6 Noroeste 24 Oeste 0 968.3 -- 29
2020-06-27 16:00:00 29.9 9 Noroeste 23 Noroeste 0 968.4 -- 29
2020-06-27 15:00:00 30.2 6 Noroeste 21 Noroeste 0 968.7 -- 32
2020-06-27 14:00:00 29.6 8 Nordeste 18 Norte 0 969.2 -- 33
2020-06-27 13:00:00 28.2 3 Norte 21 Noroeste 0 969.4 -- 35
2020-06-27 12:00:00 27 3 Norte 12 Norte 0 969.7 -- 43
2020-06-27 11:00:00 24 0 Calma 10 Nordeste 0 969.7 -- 47
2020-06-27 10:00:00 21.9 3 Este 11 Este 0 969.9 -- 50
2020-06-27 09:00:00 19.9 0 Calma 5 Nordeste 0 969.8 -- 55
2020-06-27 08:00:00 17.1 0 Calma 5 Nordeste 0 969.5 -- 61
2020-06-27 07:00:00 15 0 Calma 0 Calma 0 969.2 -- 62
2020-06-27 06:00:00 16 0 Calma 5 Nordeste 0 969 -- 58
2020-06-27 05:00:00 16.7 0 Calma 5 Nordeste 0 969 -- 56
2020-06-27 04:00:00 17.8 0 Calma 4 Nordeste 0 968.9 -- 52
2020-06-27 03:00:00 18.2 0 Calma 5 Noroeste 0 968.9 -- 50
2020-06-27 02:00:00 19.3 0 Calma 9 Nordeste 0 969.3 -- 46
2020-06-27 01:00:00 21.4 0 Calma 5 Noroeste 0 969.2 -- 44
2020-06-27 00:00:00 21.9 3 Oeste 8 Sudoeste 0 968.7 -- 41
2020-06-26 23:00:00 23.5 0 Calma 15 Oeste 0 968.2 -- 39
2020-06-26 22:00:00 25.3 9 Oeste 29 Oeste 0 967.4 -- 39
2020-06-26 21:00:00 27.4 10 Oeste 24 Noroeste 0 966.9 -- 38
2020-06-26 20:00:00 29.3 12 Noroeste 27 Noroeste 0 966.8 -- 34
2020-06-26 19:00:00 30.1 11 Noroeste 27 Noroeste 0 966.6 -- 34
2020-06-26 18:00:00 30.7 10 Oeste 26 Sudoeste 0 966.9 -- 34
2020-06-26 17:00:00 29.9 7 Noroeste 25 Oeste 0 967.3 -- 38
2020-06-26 16:00:00 29.8 11 Noroeste 30 Noroeste 0 967.7 -- 40
2020-06-26 15:00:00 28 6 Noroeste 26 Noroeste 0 968 -- 44
2020-06-26 14:00:00 26.9 8 Noroeste 19 Noroeste 0 968.2 -- 47
2020-06-26 13:00:00 25.3 8 Noroeste 21 Noroeste 0 968.6 -- 53
2020-06-26 12:00:00 23.8 4 Noroeste 15 Norte 0 968.2 -- 58
2020-06-26 11:00:00 22.6 2 Este 16 Este 0 968.4 -- 64
2020-06-26 10:00:00 21 6 Este 15 Este 0 968.4 -- 71
2020-06-26 09:00:00 18.7 0 Calma 9 Sur 0 968.5 -- 84
2020-06-26 08:00:00 17.6 0 Calma 6 Nordeste 0 968.3 -- 86
2020-06-26 07:00:00 17 0 Calma 6 Nordeste 0 968.1 -- 91
2020-06-26 06:00:00 17.3 3 Noroeste 12 Noroeste 0 967.9 -- 91
2020-06-26 05:00:00 17.7 0 Calma 8 Noroeste 0 967.9 -- 87
2020-06-26 04:00:00 19.1 0 Calma 4 Noroeste 0 967.9 -- 84
2020-06-26 03:00:00 19.6 0 Calma 10 Noroeste 0 968 -- 82
2020-06-26 02:00:00 20.1 6 Noroeste 10 Noroeste 0 968.3 -- 80
2020-06-26 01:00:00 20.9 0 Calma 10 Noroeste 0 968.3 -- 76
2020-06-26 00:00:00 22.2 4 Noroeste 13 Noroeste 0 968.1 -- 73
2020-06-25 23:00:00 23.3 7 Noroeste 15 Noroeste 0 967.8 -- 69
2020-06-25 22:00:00 25.6 7 Noroeste 20 Noroeste 0 966.7 -- 62
2020-06-25 21:00:00 27.9 12 Noroeste 29 Noroeste 0 966.1 -- 55
2020-06-25 20:00:00 30.8 11 Oeste 24 Norte 0 965.5 -- 47
2020-06-25 19:00:00 31.9 10 Sudeste 27 Sudeste 0 965.2 -- 37
2020-06-25 18:00:00 32.2 9 Sudeste 31 Sudeste 0 965.5 -- 34
2020-06-25 17:00:00 32.1 6 Sur 27 Sur 0 965.9 -- 34
2020-06-25 16:00:00 32.6 11 Sudeste 31 Sudeste 0 966.3 -- 32
2020-06-25 15:00:00 31.7 10 Sudeste 27 Sudeste 0 966.7 -- 35
2020-06-25 14:00:00 30.6 8 Sur 26 Sur 0 967.3 -- 37
2020-06-25 13:00:00 29.3 9 Sudeste 24 Sudeste 0 967.7 -- 39
2020-06-25 12:00:00 28 0 Calma 12 Sur 0 967.7 -- 43
2020-06-25 11:00:00 26.4 2 Nordeste 13 Este 0 967.7 -- 46
2020-06-25 10:00:00 24.1 8 Este 14 Este 0 967.6 -- 52
2020-06-25 09:00:00 21.8 4 Este 8 Este 0 967.4 -- 57
2020-06-25 08:00:00 18.7 4 Nordeste 8 Nordeste 0 967.4 -- 64
2020-06-25 07:00:00 18 5 Nordeste 10 Nordeste 0 967.2 -- 64
2020-06-25 06:00:00 19.4 0 Calma 10 Sudoeste 0 966.9 -- 62
2020-06-25 05:00:00 20.2 3 Sudoeste 12 Sur 0 967.3 -- 59
2020-06-25 04:00:00 20.8 5 Sur 22 Sur 0 967.4 -- 57
2020-06-25 03:00:00 20.8 11 Sur 27 Sur 0 967.8 -- 55
2020-06-25 02:00:00 21.6 16 Sudeste 31 Sudeste 0 967.6 -- 51
2020-06-25 01:00:00 22.4 4 Sudeste 23 Sur 0 967.6 -- 50
2020-06-25 00:00:00 23.1 6 Sur 28 Sur 0 967.6 -- 49
2020-06-24 23:00:00 23 10 Sur 27 Sur 0 967.5 -- 50
2020-06-24 22:00:00 24 15 Sur 30 Sur 0 966.9 -- 49
2020-06-24 21:00:00 27 14 Sur 32 Sur 0 966.1 -- 39
2020-06-24 20:00:00 29.7 8 Sur 31 Sudeste 0 965.8 -- 35
2020-06-24 19:00:00 31.4 11 Sur 29 Sur 0 965.5 -- 34
2020-06-24 18:00:00 31.2 8 Sur 29 Sudeste 0 966.3 -- 35
2020-06-24 17:00:00 31.6 11 Sudeste 32 Sur 0 966.7 -- 37
2020-06-24 16:00:00 30.8 9 Sur 33 Sur 0 967.2 -- 37
2020-06-24 15:00:00 30.3 7 Sur 30 Sur 0 967.3 -- 40
2020-06-24 14:00:00 30.3 15 Sudeste 30 Sudeste 0 967.4 -- 41
2020-06-24 13:00:00 30.2 11 Sudeste 28 Sudeste 0 967.1 -- 40
2020-06-24 12:00:00 30 4 Sudeste 17 Sudeste 0 966.9 -- 40
2020-06-24 11:00:00 28.7 2 Sudeste 9 Sudeste 0 967.2 -- 46
2020-06-24 10:00:00 25.4 2 Este 9 Este 0 967.4 -- 55
2020-06-24 09:00:00 22 0 Calma 6 Sudeste 0 967.5 -- 62
2020-06-24 08:00:00 19 0 Calma 7 Noroeste 0 967.4 -- 68
2020-06-24 07:00:00 19.8 0 Calma 6 Noroeste 0 967.2 -- 65
2020-06-24 06:00:00 20.7 0 Calma 6 Noroeste 0 967 -- 63
2020-06-24 05:00:00 20.7 4 Este 9 Este 0 967.2 -- 62
2020-06-24 04:00:00 20.5 3 Este 9 Sudoeste 0 967.2 -- 61
2020-06-24 03:00:00 21.5 0 Calma 10 Sur 0 967.1 -- 57
2020-06-24 02:00:00 22.7 2 Sur 15 Noroeste 0 967.3 -- 53
2020-06-24 01:00:00 23.2 6 Noroeste 15 Oeste 0 967.1 -- 52
2020-06-24 00:00:00 23.9 3 Sudoeste 20 Este 0 967.2 -- 51
2020-06-23 23:00:00 24.4 3 Sur 32 Sur 0 967.5 -- 49
2020-06-23 22:00:00 25.4 12 Sur 35 Sur 0 966.9 -- 45
2020-06-23 21:00:00 28.3 8 Sudeste 23 Sur 0 966.1 -- 39
2020-06-23 20:00:00 30.1 4 Sur 35 Sudoeste 0 965.3 -- 35
2020-06-23 19:00:00 30.4 10 Sudoeste 40 Sur 0 964.9 -- 35
2020-06-23 18:00:00 31.4 10 Sudoeste 31 Sur 0 965.2 -- 34
2020-06-23 17:00:00 31.8 12 Sur 40 Sur 0 965.8 -- 34
2020-06-23 16:00:00 32.1 14 Sur 42 Sur 0 965.8 -- 33
2020-06-23 15:00:00 32.2 19 Sudeste 39 Sur 0 966.7 -- 34
2020-06-23 14:00:00 32.7 16 Sudeste 38 Sur 0 966.9 -- 34
2020-06-23 13:00:00 32.3 19 Sudeste 40 Sudeste 0 966.9 -- 34
2020-06-23 12:00:00 30.7 17 Sudeste 38 Sudeste 0 967.1 -- 37
2020-06-23 11:00:00 29.1 18 Sudeste 39 Sudeste 0 967 -- 39
2020-06-23 10:00:00 28 13 Sudeste 34 Sur 0 967.2 -- 40
2020-06-23 09:00:00 25.5 13 Sudeste 36 Sudeste 0 967.2 -- 45
2020-06-23 08:00:00 24.7 18 Sudeste 31 Sudeste 0 967 -- 46
2020-06-23 07:00:00 24.1 12 Sudeste 27 Sudeste 0 967.2 -- 47
2020-06-23 06:00:00 23 6 Sudeste 24 Sur 0 967.1 -- 50
2020-06-23 05:00:00 23.1 8 Sudeste 25 Sudeste 0 967.4 -- 50
2020-06-23 04:00:00 22.8 6 Sudeste 21 Sudeste 0 967.7 -- 52
2020-06-23 03:00:00 22.8 0 Calma 15 Este 0 968.5 -- 51
2020-06-23 02:00:00 22.8 3 Sudeste 17 Oeste 0 968.4 -- 50
2020-06-23 01:00:00 23.4 5 Este 12 Este 0 968.7 -- 46
2020-06-23 00:00:00 25.4 6 Sur 18 Sur 0 968.8 -- 41
2020-06-22 23:00:00 26.5 3 Sudeste 17 Sudeste 0 968.7 -- 37
2020-06-22 22:00:00 28.1 4 Sudoeste 33 Sudoeste 0 968 -- 33
2020-06-22 21:00:00 29.1 10 Sur 36 Sur 0 967.6 -- 31
2020-06-22 20:00:00 30.7 8 Sur 30 Sur 0 967.3 -- 29
2020-06-22 19:00:00 31.6 10 Sur 38 Sur 0 967.7 -- 29
2020-06-22 18:00:00 32.5 15 Sur 50 Sur 0 968.2 -- 28
2020-06-22 17:00:00 32.6 21 Sur 48 Sudeste 0 968.8 -- 29
2020-06-22 16:00:00 32.6 22 Sudeste 48 Sur 0 969.6 -- 29
2020-06-22 15:00:00 32 19 Sur 43 Sudeste 0 970.5 -- 32
2020-06-22 14:00:00 31.1 5 Sur 35 Sudeste 0 971.2 -- 34
2020-06-22 13:00:00 30.3 8 Sur 29 Este 0 971.6 -- 37
2020-06-22 12:00:00 29 13 Este 34 Sudeste 0 971.3 -- 39
2020-06-22 11:00:00 29.5 14 Sudeste 32 Este 0 971.1 -- 37
2020-06-22 10:00:00 28.4 14 Sudeste 28 Sudeste 0 971.2 -- 39
2020-06-22 09:00:00 22.7 0 Calma 11 Sur 0 971.3 -- 53
2020-06-22 08:00:00 18 0 Calma 5 Nordeste 0 971.1 -- 61
2020-06-22 07:00:00 17.7 0 Calma 0 Calma 0 971 -- 60
2020-06-22 06:00:00 18.5 0 Calma 6 Nordeste 0 971.1 -- 57
2020-06-22 05:00:00 19.5 0 Calma 5 Sudeste 0 971.3 -- 56
2020-06-22 04:00:00 21.4 0 Calma 7 Sudoeste 0 971.5 -- 52
2020-06-22 03:00:00 21.4 0 Calma 9 Noroeste 0 971.9 -- 49
2020-06-22 02:00:00 23.5 0 Calma 7 Noroeste 0 972.2 -- 46
2020-06-22 01:00:00 24.3 2 Oeste 6 Oeste 0 972.4 -- 44
2020-06-22 00:00:00 25.7 3 Oeste 6 Oeste 0 972.3 -- 40
2020-06-21 23:00:00 27.5 0 Calma 9 Sur 0 972.1 -- 37
2020-06-21 22:00:00 29.2 0 Calma 12 Sudeste 0 971.5 -- 33
2020-06-21 21:00:00 31.3 4 Sur 23 Sur 0 971.2 -- 31
2020-06-21 20:00:00 33 10 Sudeste 23 Sudeste 0 971 -- 28
2020-06-21 19:00:00 34.6 5 Sur 17 Oeste 0 971.1 -- 26
2020-06-21 18:00:00 34.8 0 Calma 16 Sudeste 0 971.5 -- 24
2020-06-21 17:00:00 34.1 5 Sudeste 17 Oeste 0 972 -- 25
2020-06-21 16:00:00 33.8 5 Este 21 Noroeste 0 972.5 -- 26
2020-06-21 15:00:00 32.9 4 Noroeste 19 Noroeste 0 973.1 -- 27
2020-06-21 14:00:00 32.3 4 Oeste 15 Noroeste 0 973.7 -- 29
2020-06-21 13:00:00 31.6 4 Nordeste 17 Oeste 0 974.1 -- 33
2020-06-21 12:00:00 30.8 0 Calma 12 Este 0 974.1 -- 36
2020-06-21 11:00:00 28.2 3 Nordeste 9 Este 0 974.3 -- 40
2020-06-21 10:00:00 24.5 3 Este 7 Este 0 974.4 -- 47
2020-06-21 09:00:00 20.8 0 Calma 5 Este 0 974.4 -- 56
2020-06-21 08:00:00 17.1 0 Calma 4 Nordeste 0 974.2 -- 63
2020-06-21 07:00:00 16.8 0 Calma 6 Noroeste 0 973.8 -- 62
2020-06-21 06:00:00 17.4 0 Calma 8 Nordeste 0 973.7 -- 59
2020-06-21 05:00:00 18.2 2 Nordeste 5 Nordeste 0 973.7 -- 57
2020-06-21 04:00:00 19.1 0 Calma 4 Noroeste 0 973.7 -- 56
2020-06-21 03:00:00 19.8 0 Calma 8 Este 0 974 -- 52
2020-06-21 02:00:00 19.7 3 Nordeste 6 Noroeste 0 974.2 -- 51
2020-06-21 01:00:00 23 4 Oeste 7 Sudoeste 0 973.9 -- 47
2020-06-21 00:00:00 23.9 2 Sudoeste 8 Sudoeste 0 973.7 -- 44
2020-06-20 23:00:00 25.1 0 Calma 7 Sudoeste 0 973.4 -- 40
2020-06-20 22:00:00 27 0 Calma 11 Sur 0 972.7 -- 37
2020-06-20 21:00:00 28.8 8 Sudeste 23 Sur 0 972.2 -- 34
2020-06-20 20:00:00 30.9 10 Sudeste 22 Sudeste 0 971.6 -- 31
2020-06-20 19:00:00 31.5 10 Sudeste 26 Sudeste 0 971.6 -- 30
2020-06-20 18:00:00 31.2 11 Sur 23 Sudeste 0 971.9 -- 31
2020-06-20 17:00:00 31.5 8 Sudeste 22 Sudeste 0 972.1 -- 31
2020-06-20 16:00:00 31.3 10 Sudeste 34 Este 0 972.3 -- 31
2020-06-20 15:00:00 30.5 6 Sudeste 24 Sudeste 0 972.8 -- 32
2020-06-20 14:00:00 29.4 10 Sudeste 27 Sur 0 973.2 -- 35
2020-06-20 13:00:00 28.6 7 Sur 21 Sur 0 973.4 -- 39
2020-06-20 12:00:00 27.4 2 Sur 19 Sur 0 973.3 -- 44
2020-06-20 11:00:00 25.1 0 Calma 6 Sur 0 973.2 -- 50
2020-06-20 10:00:00 22 0 Calma 5 Sudeste 0 973.2 -- 59
2020-06-20 09:00:00 19.4 0 Calma 2 Sudeste 0 973.1 -- 64
2020-06-20 08:00:00 16.3 0 Calma 0 Calma 0 972.8 -- 69
2020-06-20 07:00:00 15.7 0 Calma -- -- 0 972.5 -- 69
2020-06-20 06:00:00 16.5 0 Calma -- -- 0 972.4 -- 68
2020-06-20 05:00:00 17.4 0 Calma 2 Oeste 0 972.1 -- 65
2020-06-20 04:00:00 17.9 0 Calma -- -- 0 972.1 -- 61
2020-06-20 03:00:00 19.2 0 Calma 5 Nordeste 0 972.2 -- 57
2020-06-20 02:00:00 19.5 2 Nordeste 6 Oeste 0 972.7 -- 55
2020-06-20 01:00:00 21.2 0 Calma 5 Sudoeste 0 972.8 -- 51
2020-06-20 00:00:00 22 0 Calma 9 Oeste 0 972.7 -- 49
2020-06-19 23:00:00 23.5 2 Oeste 11 Oeste 0 972.4 -- 46
2020-06-19 22:00:00 24.8 4 Oeste 21 Oeste 0 971.2 -- 45
2020-06-19 21:00:00 27.2 11 Oeste 22 Oeste 0 970.4 -- 41
2020-06-19 20:00:00 29.6 6 Noroeste 19 Oeste 0 969.8 -- 37
2020-06-19 19:00:00 29.8 7 Noroeste 23 Noroeste 0 969.7 -- 36
2020-06-19 18:00:00 29.9 0 Calma 19 Noroeste 0 969.8 -- 37
2020-06-19 17:00:00 28.9 9 Noroeste 22 Noroeste 0 969.9 -- 37
2020-06-19 16:00:00 28.8 0 Calma 22 Oeste 0 970 -- 39
2020-06-19 15:00:00 27.3 4 Noroeste 18 Oeste 0 970.3 -- 41
2020-06-19 14:00:00 26.9 5 Nordeste 17 Este 0 970.7 -- 43
2020-06-19 13:00:00 25.6 4 Noroeste 16 Oeste 0 970.9 -- 46
2020-06-19 12:00:00 23.9 4 Noroeste 19 Noroeste 0 970.8 -- 50
2020-06-19 11:00:00 22.5 4 Noroeste 15 Noroeste 0 970.7 -- 52
2020-06-19 10:00:00 20.8 2 Norte 9 Noroeste 0 970.5 -- 56
2020-06-19 09:00:00 17.4 0 Calma 5 Este 0 970.3 -- 59
2020-06-19 08:00:00 14.3 0 Calma 3 Este 0 970 -- 67
2020-06-19 07:00:00 13.3 0 Calma -- -- 0 969.4 -- 65
2020-06-19 06:00:00 14.1 0 Calma 4 Oeste 0 968.8 -- 63
2020-06-19 05:00:00 15.9 2 Nordeste 9 Nordeste 0 968.8 -- 59
2020-06-19 04:00:00 16.4 4 Nordeste 12 Nordeste 0 968.6 -- 55
2020-06-19 03:00:00 16.6 5 Nordeste 8 Nordeste 0 968.5 -- 52
2020-06-19 02:00:00 18.2 3 Nordeste 7 Nordeste 0 968.3 -- 48
2020-06-19 01:00:00 18.3 0 Calma 9 Norte 0 968.2 -- 46
2020-06-19 00:00:00 20.7 4 Noroeste 9 Noroeste 0 967.7 -- 43
2020-06-18 23:00:00 21.8 4 Oeste 10 Sudoeste 0 967.5 -- 41
2020-06-18 22:00:00 23.3 3 Oeste 26 Oeste 0 966.5 -- 38
2020-06-18 21:00:00 25.2 12 Oeste 30 Oeste 0 965.9 -- 37
2020-06-18 20:00:00 27.6 14 Oeste 30 Oeste 0 965.1 -- 34
2020-06-18 19:00:00 27.4 7 Oeste 21 Oeste 0 964.5 -- 40
2020-06-18 18:00:00 28.1 9 Oeste 22 Oeste 0 964.7 -- 36
2020-06-18 17:00:00 28.6 4 Noroeste 27 Oeste 0 964.8 -- 35
2020-06-18 16:00:00 29.1 5 Noroeste 23 Noroeste 0 964.9 -- 35
2020-06-18 15:00:00 28.9 5 Norte 21 Oeste 0 965.2 -- 35
2020-06-18 14:00:00 27.9 7 Oeste 25 Oeste 0 965.4 -- 38
2020-06-18 13:00:00 27 3 Noroeste 20 Oeste 0 965.9 -- 39
2020-06-18 12:00:00 25 2 Noroeste 9 Noroeste 0 966 -- 43
2020-06-18 11:00:00 22.8 2 Noroeste 11 Noroeste 0 965.6 -- 50
2020-06-18 10:00:00 21.3 3 Noroeste 12 Noroeste 0 965.8 -- 55
2020-06-18 09:00:00 18.7 7 Noroeste -- -- -- 965.9 -- 63
2020-06-18 08:00:00 15.6 0 Calma 3 Este 0 965.7 -- 70
2020-06-18 07:00:00 14.5 0 Calma 4 Este 0 965.6 -- 71
2020-06-18 06:00:00 15.4 0 Calma 3 Este 0 965.2 -- 69
2020-06-18 05:00:00 16.4 0 Calma 3 Este 0 965.2 -- 64
2020-06-18 04:00:00 18.3 0 Calma 6 Noroeste 0 965.7 -- 59
2020-06-18 03:00:00 18.3 0 Calma 8 Nordeste 0 966.3 -- 59
2020-06-18 02:00:00 19.3 0 Calma 7 Oeste 0 966.7 -- 56
2020-06-18 01:00:00 20.2 0 Calma 6 Noroeste 0 967.2 -- 56
2020-06-18 00:00:00 21 0 Calma 8 Noroeste 0 967.1 -- 51
2020-06-17 23:00:00 22.2 3 Oeste 13 Oeste 0 966.8 -- 47
2020-06-17 22:00:00 24.1 10 Oeste 21 Oeste 0 966.2 -- 44
2020-06-17 21:00:00 25.9 9 Oeste 21 Oeste 0 965.9 -- 39
2020-06-17 20:00:00 27.6 8 Noroeste 22 Oeste 0 965.8 -- 35
2020-06-17 19:00:00 28.2 9 Oeste 25 Noroeste 0 965.7 -- 35
2020-06-17 18:00:00 28 13 Noroeste 28 Oeste 0 966.1 -- 37
2020-06-17 17:00:00 28.2 12 Noroeste 27 Oeste 0 966.7 -- 36
2020-06-17 16:00:00 28.3 12 Noroeste 33 Noroeste 0 967.1 -- 38
2020-06-17 15:00:00 26.6 8 Noroeste 27 Noroeste 0 967.8 -- 39
2020-06-17 14:00:00 26.2 5 Noroeste 24 Oeste 0 968.4 -- 44
2020-06-17 13:00:00 25.6 4 Noroeste 24 Noroeste 0 968.9 -- 47
2020-06-17 12:00:00 24.1 6 Noroeste 23 Noroeste 0 969.2 -- 50
2020-06-17 11:00:00 22.6 2 Noroeste 14 Sur 0 969.4 -- 59
2020-06-17 10:00:00 21.3 0 Calma 7 Sudeste 0 969.9 -- 64
2020-06-17 09:00:00 19.3 0 Calma 5 Sudeste 0 969.9 -- 73
2020-06-17 08:00:00 16.6 0 Calma 5 Oeste 0 969.5 -- 80
2020-06-17 07:00:00 16.4 0 Calma 3 Noroeste 0 969.6 -- 81
2020-06-17 06:00:00 16.6 0 Calma 6 Nordeste 0 969.6 -- 79
2020-06-17 05:00:00 17.7 3 Noroeste 8 Noroeste 0 969.7 -- 76
2020-06-17 04:00:00 18.5 0 Calma 7 Nordeste 0 969.8 -- 74
2020-06-17 03:00:00 18.9 0 Calma 10 Nordeste 0 970.4 -- 71
2020-06-17 02:00:00 19 3 Oeste 12 Oeste 0 970.7 -- 71
2020-06-17 01:00:00 19.1 0 Calma 10 Sudoeste 0 971.3 -- 73
2020-06-17 00:00:00 20 3 Oeste 19 Oeste 0 971.7 -- 71
2020-06-16 23:00:00 21 8 Oeste 21 Oeste 0 971.4 -- 67
2020-06-16 22:00:00 22.6 8 Oeste 26 Oeste 0 970.9 -- 57
2020-06-16 21:00:00 24.2 14 Oeste 30 Oeste 0 970.6 -- 49
2020-06-16 20:00:00 25.8 14 Noroeste 32 Oeste 0 970.6 -- 44
2020-06-16 19:00:00 26.4 14 Oeste 34 Oeste 0 970.8 -- 42
2020-06-16 18:00:00 26.6 16 Oeste 32 Noroeste 0 970.9 -- 39
2020-06-16 17:00:00 26.8 15 Noroeste 32 Oeste 0 971.5 -- 36
2020-06-16 16:00:00 27 14 Noroeste 35 Noroeste 0 971.5 -- 35
2020-06-16 15:00:00 26 17 Noroeste 37 Noroeste 0 971.9 -- 34
2020-06-16 14:00:00 25.9 15 Noroeste 31 Noroeste 0 972.1 -- 38
2020-06-16 13:00:00 23.5 11 Noroeste 23 Norte 0 972.3 -- 44
2020-06-16 12:00:00 22.6 12 Noroeste 21 Noroeste 0 972.5 -- 47
2020-06-16 11:00:00 22 4 Noroeste 15 Norte 0 972.8 -- 53
2020-06-16 10:00:00 20.4 3 Norte 12 Noroeste 0 973.3 -- 56
2020-06-16 09:00:00 18.7 0 Calma 6 Nordeste 0 973.3 -- 59
2020-06-16 08:00:00 17 0 Calma 6 Nordeste 0 973.1 -- 64
2020-06-16 07:00:00 15.8 3 Nordeste 6 Nordeste 0 972.7 -- 64
2020-06-16 06:00:00 16.4 0 Calma 5 Nordeste 0 972.2 -- 62
2020-06-16 05:00:00 16.8 4 Nordeste 9 Nordeste 0 972.3 -- 61
2020-06-16 04:00:00 17 5 Nordeste 9 Este 0 972.5 -- 59
2020-06-16 03:00:00 17.3 0 Calma 12 Noroeste 0 972.7 -- 57
2020-06-16 02:00:00 17.8 0 Calma 12 Noroeste 0 972.6 -- 56
2020-06-16 01:00:00 18.3 5 Noroeste 13 Noroeste 0 973 -- 52
2020-06-16 00:00:00 19.4 0 Calma 8 Noroeste 0 973 -- 47
2020-06-15 23:00:00 21 5 Oeste 19 Oeste 0 973 -- 44
2020-06-15 22:00:00 23 10 Oeste 23 Oeste 0 972.7 -- 43
2020-06-15 21:00:00 25.2 14 Noroeste 24 Oeste 0 972.4 -- 39
2020-06-15 20:00:00 27 12 Noroeste 24 Oeste 0 971.8 -- 35
2020-06-15 19:00:00 27.9 4 Noroeste 23 Noroeste 0 971.7 -- 33
2020-06-15 18:00:00 28.3 9 Noroeste 24 Noroeste 0 972.4 -- 33
2020-06-15 17:00:00 27.7 8 Oeste 31 Noroeste 0 972.7 -- 34
2020-06-15 16:00:00 26.9 8 Noroeste 23 Noroeste 0 973.2 -- 34
2020-06-15 15:00:00 26 6 Norte 28 Noroeste 0 973.6 -- 36
2020-06-15 14:00:00 25.3 4 Nordeste 22 Noroeste 0 973.8 -- 40
2020-06-15 13:00:00 -- -- -- -- -- -- -- -- --
2020-06-15 12:00:00 23.1 0 Calma 14 Este 0 974.4 -- 49
2020-06-15 11:00:00 21.5 2 Este 12 Este 0 974.5 -- 53
2020-06-15 10:00:00 19.2 4 Nordeste 14 Este 0 974.8 -- 58
2020-06-15 09:00:00 16.5 0 Calma 3 Sur 0 974.7 -- 67
2020-06-15 08:00:00 13.5 0 Calma 0 Calma 0 974.5 -- 72
2020-06-15 07:00:00 11.8 0 Calma 10 Nordeste 0 974.2 -- 76
2020-06-15 06:00:00 12.3 3 Nordeste 12 Nordeste 0 973.8 -- 75
2020-06-15 05:00:00 14.4 6 Nordeste 10 Norte 0 973.9 -- 70
2020-06-15 04:00:00 14 2 Nordeste 5 Norte 0 974.1 -- 71
2020-06-15 03:00:00 14.8 5 Noroeste 14 Noroeste 0 974.3 -- 69
2020-06-15 02:00:00 16 4 Noroeste 7 Noroeste 0 974.5 -- 63
2020-06-15 01:00:00 16.7 2 Noroeste 12 Noroeste 0 974.4 -- 57
2020-06-15 00:00:00 17.3 2 Nordeste 8 Oeste 0 974.1 -- 53
2020-06-14 23:00:00 18.7 0 Calma 15 Noroeste 0 973.6 -- 49
2020-06-14 22:00:00 20.6 8 Oeste 24 Oeste 0 972.6 -- 44
2020-06-14 21:00:00 22.8 11 Oeste 29 Oeste 0 972.5 -- 41
2020-06-14 20:00:00 24.9 9 Oeste 30 Oeste 0 971.8 -- 38
2020-06-14 19:00:00 25.7 12 Noroeste 30 Oeste 0 971.2 -- 33
2020-06-14 18:00:00 26.7 12 Noroeste 28 Oeste 0 971.5 -- 33
2020-06-14 17:00:00 26.2 13 Noroeste 29 Noroeste 0 971.5 -- 33
2020-06-14 16:00:00 25.6 10 Oeste 27 Noroeste 0 971.9 -- 34
2020-06-14 15:00:00 24.9 6 Noroeste 29 Noroeste 0 972.1 -- 36
2020-06-14 14:00:00 24.4 8 Noroeste 23 Noroeste 0 972.5 -- 39
2020-06-14 13:00:00 23.9 9 Noroeste 27 Noroeste 0 972.8 -- 41
2020-06-14 12:00:00 22 3 Noroeste 15 Noroeste 0 972.6 -- 45
2020-06-14 11:00:00 20.7 5 Noroeste 18 Noroeste 0 972.4 -- 50
2020-06-14 10:00:00 18.3 0 Calma 8 Este 0 972.1 -- 53
2020-06-14 09:00:00 16.1 0 Calma 7 Noroeste 0 972 -- 59
2020-06-14 08:00:00 14.4 0 Calma 6 Norte 0 971.4 -- 64
2020-06-14 07:00:00 14.1 0 Calma 5 Nordeste 0 970.9 -- 63
2020-06-14 06:00:00 14.9 0 Calma 12 Norte 0 970.4 -- 59
2020-06-14 05:00:00 14.9 6 Nordeste 10 Nordeste 0 970.3 -- 61
2020-06-14 04:00:00 15.7 0 Calma 10 Noroeste 0 970.5 -- 58
2020-06-14 03:00:00 16.3 2 Noroeste 9 Noroeste 0 970.7 -- 56
2020-06-14 02:00:00 16.6 0 Calma 3 Oeste 0 970.9 -- 52
2020-06-14 01:00:00 17.4 0 Calma 6 Sudoeste 0 970.8 -- 50
2020-06-14 00:00:00 18 0 Calma 14 Noroeste 0 970.7 -- 46
2020-06-13 23:00:00 19.1 0 Calma 8 Oeste 0 969.9 -- 40
2020-06-13 22:00:00 20.4 6 Noroeste 18 Noroeste 0 969.3 -- 37
2020-06-13 21:00:00 22.3 9 Noroeste 24 Noroeste 0 969 -- 34
2020-06-13 20:00:00 23.9 12 Noroeste 28 Noroeste 0 968.6 -- 33
2020-06-13 19:00:00 24.9 7 Oeste 24 Oeste 0 968.5 -- 32
2020-06-13 18:00:00 25.1 6 Oeste 24 Oeste 0 968.5 -- 32
2020-06-13 17:00:00 23.9 0 Calma 22 Noroeste 0 968.7 -- 34
2020-06-13 16:00:00 23.3 4 Nordeste 18 Oeste 0 969 -- 38
2020-06-13 15:00:00 22.5 3 Oeste 17 Sudoeste 0 969.5 -- 39
2020-06-13 14:00:00 21.5 3 Oeste 17 Oeste 0 969.8 -- 41
2020-06-13 13:00:00 20.3 0 Calma 15 Noroeste 0 969.8 -- 45
2020-06-13 12:00:00 19.5 2 Nordeste 17 Noroeste 0 969.6 -- 49
2020-06-13 11:00:00 17.9 2 Noroeste 11 Noroeste 0 969.2 -- 58
2020-06-13 10:00:00 16.7 0 Calma 8 Norte 0 968.8 -- 65
2020-06-13 09:00:00 14.6 2 Oeste 8 Oeste 0 968.4 -- 74
2020-06-13 08:00:00 12.5 3 Oeste 8 Oeste 0 968 -- 83
2020-06-13 07:00:00 11.8 0 Calma 6 Nordeste 0 967.6 -- 85
2020-06-13 06:00:00 12.7 0 Calma 9 Noroeste 0 967.1 -- 81
2020-06-13 05:00:00 12.8 0 Calma 14 Oeste 0 967.2 -- 79
2020-06-13 04:00:00 13.5 0 Calma 19 Oeste 0 967.2 -- 75
2020-06-13 03:00:00 14.1 9 Oeste 28 Sudoeste 0 966.7 -- 71
2020-06-13 02:00:00 14.2 7 Oeste 30 Oeste 0 967 -- 71
2020-06-13 01:00:00 14.6 7 Oeste 32 Oeste 0 966.7 -- 69
2020-06-13 00:00:00 14.9 10 Oeste 34 Oeste 0 966.4 -- 65
2020-06-12 23:00:00 15.7 11 Oeste 28 Oeste 0 965.6 -- 57
2020-06-12 22:00:00 17.1 7 Oeste 25 Sudoeste 0 965 -- 51
2020-06-12 21:00:00 18.8 8 Oeste 36 Sudoeste 0 964 -- 45
2020-06-12 20:00:00 19.2 15 Oeste 35 Sudoeste 0 963.2 -- 43
2020-06-12 19:00:00 20.5 12 Oeste 37 Oeste 0 963 -- 43
2020-06-12 18:00:00 20.9 15 Oeste 33 Oeste 0 963 -- 44
2020-06-12 17:00:00 20.7 12 Oeste 29 Sudoeste 0 962.8 -- 45
2020-06-12 16:00:00 20.2 9 Oeste 30 Oeste 0 962.9 -- 46
2020-06-12 15:00:00 19.4 5 Sudoeste 23 Sur 0 963.1 -- 49
2020-06-12 14:00:00 17.9 8 Oeste 19 Noroeste 0 963.7 -- 53
2020-06-12 13:00:00 16.7 0 Calma 15 Noroeste 0 964 -- 65
2020-06-12 12:00:00 15.4 3 Noroeste 18 Noroeste 0 964 -- 69
2020-06-12 11:00:00 15.5 5 Oeste 18 Oeste 0 963.8 -- 68
2020-06-12 10:00:00 15.3 6 Oeste 20 Oeste 0 963.6 -- 69
2020-06-12 09:00:00 14.7 9 Oeste 22 Oeste 0 963.4 -- 75
2020-06-12 08:00:00 14.3 2 Oeste 12 Sudoeste 0 963.1 -- 82
2020-06-12 07:00:00 14.1 0 Calma 9 Oeste 0 962.8 -- 86
2020-06-12 06:00:00 14 4 Oeste 24 Noroeste 0.1 962.6 -- 87
2020-06-12 05:00:00 14.9 5 Oeste 15 Oeste 0.3 962.5 -- 91
2020-06-12 04:00:00 15.4 9 Oeste 28 Oeste 0.2 962.6 -- 89
2020-06-12 03:00:00 16 11 Oeste 24 Oeste 0 962.7 -- 82
2020-06-12 02:00:00 16.5 11 Oeste 32 Oeste 0 963.3 -- 79
2020-06-12 01:00:00 17.1 12 Oeste 30 Oeste 0 963.8 -- 74
2020-06-12 00:00:00 17.1 8 Oeste 28 Sudoeste 0 964.1 -- 74
2020-06-11 23:00:00 17.2 6 Oeste 23 Oeste 0 963.9 -- 69
2020-06-11 22:00:00 17.5 10 Oeste 33 Oeste 0 963.6 -- 65
2020-06-11 21:00:00 18.8 11 Oeste 32 Sudoeste 0 963.5 -- 59
2020-06-11 20:00:00 20.7 17 Oeste 38 Oeste 0 963.4 -- 50
2020-06-11 19:00:00 22.3 14 Oeste 42 Oeste 0 963.2 -- 45
2020-06-11 18:00:00 23.5 14 Oeste 38 Sudoeste 0 962.9 -- 44
2020-06-11 17:00:00 24.5 13 Oeste 39 Oeste 0 963.1 -- 42
2020-06-11 16:00:00 24.1 13 Oeste 34 Oeste 0 963.4 -- 42
2020-06-11 15:00:00 23.9 10 Oeste 29 Oeste 0 964 -- 41
2020-06-11 14:00:00 24.3 10 Oeste 28 Oeste 0 964.5 -- 41
2020-06-11 13:00:00 23.2 10 Oeste 34 Sudoeste 0 964.9 -- 40
2020-06-11 12:00:00 21.9 8 Oeste 25 Oeste 0 965.1 -- 41
2020-06-11 11:00:00 20.8 10 Oeste 24 Oeste 0 965.3 -- 46
2020-06-11 10:00:00 19.4 0 Calma 9 Este 0 966 -- 57
2020-06-11 09:00:00 17 0 Calma 4 Este 0 966.3 -- 64
2020-06-11 08:00:00 13.4 0 Calma 7 Sudeste 0 966.1 -- 74
2020-06-11 07:00:00 12.8 0 Calma 5 Nordeste 0 966.2 -- 73
2020-06-11 06:00:00 13.9 0 Calma 8 Nordeste 0 966.2 -- 68
2020-06-11 05:00:00 14.7 4 Nordeste 10 Nordeste 0 966.6 -- 67
2020-06-11 04:00:00 15.2 0 Calma 7 Noroeste 0 966.9 -- 64
2020-06-11 03:00:00 16.1 0 Calma 10 Norte 0 967.6 -- 63
2020-06-11 02:00:00 17.3 3 Noroeste 13 Noroeste 0 967.9 -- 59
2020-06-11 01:00:00 18.7 3 Oeste 11 Oeste 0 968 -- 51
2020-06-11 00:00:00 19.3 0 Calma 14 Noroeste 0 967.9 -- 51
2020-06-10 23:00:00 20.7 5 Oeste 18 Oeste 0 967.5 -- 49
2020-06-10 22:00:00 22.1 9 Oeste 29 Oeste 0 967.1 -- 47
2020-06-10 21:00:00 24.3 12 Oeste 29 Noroeste 0 966.5 -- 47
2020-06-10 20:00:00 27.2 12 Oeste 25 Noroeste 0 965.9 -- 39
2020-06-10 19:00:00 28 11 Oeste 24 Oeste 0 965.9 -- 34
2020-06-10 18:00:00 28.3 9 Oeste 27 Oeste 0 966.1 -- 32
2020-06-10 17:00:00 28.8 9 Oeste 26 Noroeste 0 966.5 -- 30
2020-06-10 16:00:00 27.4 2 Noroeste 21 Este 0 966.9 -- 30
2020-06-10 15:00:00 27.4 3 Sudeste 23 Sudeste 0 967.2 -- 32
2020-06-10 14:00:00 25.9 3 Sudoeste 13 Oeste 0 967.8 -- 33
2020-06-10 13:00:00 25.7 3 Sudeste 13 Este 0 968.4 -- 34
2020-06-10 12:00:00 24.9 4 Sudeste 12 Sudeste 0 968.5 -- 36
2020-06-10 11:00:00 22.2 5 Nordeste 13 Este 0 969 -- 40
2020-06-10 10:00:00 19.5 0 Calma 5 Oeste 0 968.9 -- 56
2020-06-10 09:00:00 16.2 2 Noroeste 5 Oeste 0 968.7 -- 71
2020-06-10 08:00:00 13.7 0 Calma 4 Noroeste 0 968.7 -- 79
2020-06-10 07:00:00 13.1 0 Calma 4 Nordeste 0 968.7 -- 79
2020-06-10 06:00:00 13.9 0 Calma 8 Oeste 0 968.3 -- 75
2020-06-10 05:00:00 13.9 2 Este 5 Nordeste 0 968.8 -- 75
2020-06-10 04:00:00 15.2 0 Calma 7 Noroeste 0 969.1 -- 68
2020-06-10 03:00:00 16.6 0 Calma 10 Noroeste 0 969.4 -- 63
2020-06-10 02:00:00 17.2 0 Calma 9 Noroeste 0 969.9 -- 65
2020-06-10 01:00:00 18.1 0 Calma 5 Noroeste 0 969.8 -- 64
2020-06-10 00:00:00 19.2 3 Oeste 8 Oeste 0 969.5 -- 58
2020-06-09 23:00:00 20.6 0 Calma 14 Oeste 0 968.9 -- 51
2020-06-09 22:00:00 22.1 5 Oeste 15 Oeste 0 967.8 -- 41
2020-06-09 21:00:00 24.6 5 Oeste 19 Noroeste 0 967.6 -- 35
2020-06-09 20:00:00 25.7 7 Oeste 23 Noroeste 0 967.3 -- 35
2020-06-09 19:00:00 25.5 10 Noroeste 31 Oeste 0 967.4 -- 37
2020-06-09 18:00:00 26.2 13 Oeste 26 Noroeste 0 967.3 -- 35
2020-06-09 17:00:00 25.4 8 Oeste 27 Oeste 0 967.6 -- 35
2020-06-09 16:00:00 25.8 7 Oeste 26 Noroeste 0 968 -- 35
2020-06-09 15:00:00 25.3 8 Noroeste 27 Noroeste 0 968.6 -- 38
2020-06-09 14:00:00 25.3 5 Noroeste 23 Noroeste 0 968.9 -- 38
2020-06-09 13:00:00 23.5 7 Oeste 18 Noroeste 0 969.3 -- 43
2020-06-09 12:00:00 22.7 2 Noroeste 11 Este 0 969.2 -- 46
2020-06-09 11:00:00 20.8 3 Oeste 14 Este 0 969.3 -- 50
2020-06-09 10:00:00 19.4 2 Este 9 Este 0 969.4 -- 52
2020-06-09 09:00:00 15.8 0 Calma 6 Este 0 969.1 -- 67
2020-06-09 08:00:00 12.9 0 Calma 0 Calma 0 968.8 -- 77
2020-06-09 07:00:00 11.6 0 Calma 0 Calma 0 968.4 -- 79
2020-06-09 06:00:00 12.2 0 Calma 4 Nordeste 0 968 -- 76
2020-06-09 05:00:00 12.9 0 Calma 6 Nordeste 0 967.8 -- 75
2020-06-09 04:00:00 13.8 4 Nordeste 8 Nordeste 0 967.9 -- 73
2020-06-09 03:00:00 14.9 0 Calma 4 Nordeste 0 968.4 -- 67
2020-06-09 02:00:00 15.5 0 Calma 9 Noroeste 0 968.6 -- 64
2020-06-09 01:00:00 16.7 3 Noroeste 8 Oeste 0 968.7 -- 62
2020-06-09 00:00:00 17.3 0 Calma 16 Sudoeste 0 968.5 -- 59
2020-06-08 23:00:00 18.1 0 Calma 15 Oeste 0 967.8 -- 56
2020-06-08 22:00:00 19.7 8 Oeste 22 Oeste 0 966.9 -- 48
2020-06-08 21:00:00 21.9 12 Oeste 24 Oeste 0 966.3 -- 40
2020-06-08 20:00:00 23.2 10 Oeste 27 Noroeste 0 966.2 -- 37
2020-06-08 19:00:00 23.5 8 Noroeste 27 Noroeste 0 966.2 -- 36
2020-06-08 18:00:00 23 12 Noroeste 32 Oeste 0 966.7 -- 33
2020-06-08 17:00:00 23.5 11 Oeste 34 Sudoeste 0 966.6 -- 32
2020-06-08 16:00:00 22.7 11 Oeste 31 Noroeste 0 966.8 -- 33
2020-06-08 15:00:00 22.1 10 Oeste 34 Oeste 0 966.8 -- 32
2020-06-08 14:00:00 21.3 14 Noroeste 32 Noroeste 0 966.9 -- 32
2020-06-08 13:00:00 20.5 13 Oeste 26 Noroeste 0 967.3 -- 39
2020-06-08 12:00:00 20 13 Noroeste 26 Noroeste 0 966.9 -- 45
2020-06-08 11:00:00 19.7 5 Oeste 22 Sudoeste 0 966.6 -- 52
2020-06-08 10:00:00 18 9 Oeste 21 Oeste 0 966.8 -- 57
2020-06-08 09:00:00 17 0 Calma 12 Noroeste 0 967 -- 68
2020-06-08 08:00:00 16.1 6 Oeste 14 Oeste 0 966.6 -- 73
2020-06-08 07:00:00 16.2 4 Oeste 10 Oeste 0 966.1 -- 79
2020-06-08 06:00:00 16.5 0 Calma 6 Oeste 0 965.6 -- 78
2020-06-08 05:00:00 16.2 0 Calma 12 Oeste 0 965.6 -- 77
2020-06-08 04:00:00 16.2 5 Oeste 14 Oeste 0 965.6 -- 79
2020-06-08 03:00:00 16 6 Oeste 20 Oeste 0 965.6 -- 79
2020-06-08 02:00:00 16.2 8 Oeste 22 Oeste 0 966 -- 77
2020-06-08 01:00:00 16.7 6 Oeste 25 Oeste 0 966.3 -- 75
2020-06-08 00:00:00 17.6 8 Oeste 24 Oeste 0 966.7 -- 71
2020-06-07 23:00:00 18.4 10 Oeste 26 Sudoeste 0 966.3 -- 62
2020-06-07 22:00:00 19.7 2 Oeste 29 Oeste 0 965.9 -- 54
2020-06-07 21:00:00 21.5 10 Oeste 30 Sudoeste 0 965.4 -- 49
2020-06-07 20:00:00 22.7 9 Oeste 37 Oeste 0 965.1 -- 47
2020-06-07 19:00:00 23.9 12 Oeste 34 Oeste 0 965 -- 45
2020-06-07 18:00:00 23.8 13 Oeste 41 Oeste 0 965 -- 45
2020-06-07 17:00:00 23.7 11 Sudoeste 39 Oeste 0 964.8 -- 45
2020-06-07 16:00:00 24.8 14 Oeste 34 Sudoeste 0 965 -- 45
2020-06-07 15:00:00 24.8 13 Oeste 32 Oeste 0 965 -- 45
2020-06-07 14:00:00 24.1 13 Oeste 34 Sudoeste 0 965 -- 46
2020-06-07 13:00:00 23.4 15 Oeste 32 Sudoeste 0 965.1 -- 49
2020-06-07 12:00:00 22.6 8 Oeste 28 Oeste 0 965.1 -- 52
2020-06-07 11:00:00 21.4 10 Oeste 26 Oeste 0 964.9 -- 53
2020-06-07 10:00:00 20.5 6 Oeste 22 Oeste 0 964.7 -- 59
2020-06-07 09:00:00 18.5 2 Oeste 9 Sudoeste 0 964.5 -- 62
2020-06-07 08:00:00 17.9 2 Oeste 12 Oeste 0 964.1 -- 63
2020-06-07 07:00:00 17.7 2 Sudoeste 16 Sudoeste 0 963.8 -- 63
2020-06-07 06:00:00 18 4 Oeste 14 Sur 0 963.4 -- 61
2020-06-07 05:00:00 18.1 3 Sudoeste 23 Sudoeste 0 963.3 -- 59
2020-06-07 04:00:00 17.6 4 Oeste 12 Sudoeste 0 963.1 -- 62
2020-06-07 03:00:00 17.3 3 Sur 11 Sur 0 962.9 -- 61
2020-06-07 02:00:00 18.9 4 Sudoeste 15 Noroeste 0 963.4 -- 52
2020-06-07 01:00:00 19.4 7 Oeste 19 Sudoeste 0 963.3 -- 47
2020-06-07 00:00:00 20.7 7 Oeste 33 Oeste 0 963 -- 46
2020-06-06 23:00:00 21.5 8 Oeste 30 Oeste 0 962.5 -- 46
2020-06-06 22:00:00 23.5 13 Oeste 26 Oeste 0 961.5 -- 43
2020-06-06 21:00:00 26.1 11 Oeste 29 Sudoeste 0 961 -- 34
2020-06-06 20:00:00 27.2 11 Sudoeste 39 Sudoeste 0 960.8 -- 33
2020-06-06 19:00:00 28.6 8 Sudoeste 37 Oeste 0 961.4 -- 32
2020-06-06 18:00:00 29.1 14 Oeste 37 Sudoeste 0 961.8 -- 30
2020-06-06 17:00:00 28.4 10 Sudoeste 32 Sudoeste 0 962.1 -- 31
2020-06-06 16:00:00 27.9 5 Sur 32 Sur 0 962.7 -- 34
2020-06-06 15:00:00 27.3 3 Noroeste 19 Sur 0 962.5 -- 33
2020-06-06 14:00:00 26.4 3 Oeste 15 Oeste 0 963.5 -- 36
2020-06-06 13:00:00 24.4 5 Oeste 12 Oeste 0 964.2 -- 41
2020-06-06 12:00:00 22.5 3 Noroeste 14 Norte 0 964.8 -- 46
2020-06-06 11:00:00 21.9 0 Calma 12 Noroeste 0 964.8 -- 51
2020-06-06 10:00:00 19.6 0 Calma 6 Oeste 0 965.5 -- 71
2020-06-06 09:00:00 16.8 0 Calma 5 Oeste 0 965.6 -- 82
2020-06-06 08:00:00 14 0 Calma 4 Este 0 965.5 -- 91
2020-06-06 07:00:00 13.9 0 Calma 8 Noroeste 0 965.7 -- 92
2020-06-06 06:00:00 14.5 3 Noroeste 6 Noroeste 0 965.9 -- 92
2020-06-06 05:00:00 14.9 0 Calma 7 Norte 0 966.1 -- 91
2020-06-06 04:00:00 16.2 0 Calma 6 Nordeste 0 966.5 -- 90
2020-06-06 03:00:00 16.6 0 Calma 15 Noroeste 0 966.6 -- 85
2020-06-06 02:00:00 17.9 5 Noroeste 15 Noroeste 0 966.6 -- 79
2020-06-06 01:00:00 18.7 0 Calma 3 Este 0 967.1 -- 74
2020-06-06 00:00:00 19.5 0 Calma 6 Noroeste 0 967.1 -- 69